Flight Track Log - Related Links

Times and Time Zones

All times are in EDT time to prevent confusion due to time zone crossing. See the SKW5631 flight status page for this flight to view local times or setup timezone preferences in your user account.

Time Position Orientation Groundspeed Altitude Reporting Facility
EDT Latitude Longitude Course Direction KTS MPH feet Rate Location/Type
Fri 07:30:24 PM 37.6667 -122.3000 50° Northeast 184 212 3,200  Level Northern Cal TRACON
Fri 07:31:02 PM 37.6914 -122.2736 40° Northeast 184 212 4,200 1,576 Climbing Oakland Center
Fri 07:32:03 PM 37.7239 -122.2231 51° Northeast 187 215 5,800 1,512 Climbing Oakland Center
Fri 07:33:05 PM 37.7353 -122.1589 77° East 187 215 7,300 1,415 Climbing Oakland Center
Fri 07:34:06 PM 37.7478 -122.0961 76° East 187 215 8,700 1,377 Climbing Oakland Center
Fri 07:35:07 PM 37.7586 -122.0311 78° East 188 216 10,100 1,220 Climbing Oakland Center
Fri 07:36:09 PM 37.7714 -121.9656 76° East 192 221 11,200 1,073 Climbing Oakland Center
Fri 07:37:10 PM 37.7828 -121.8961 78° East 199 229 12,300 1,073 Climbing Oakland Center
Fri 07:38:12 PM 37.7986 -121.8128 76° East 203 234 13,400 1,073 Climbing Oakland Center
Fri 07:39:13 PM 37.8033 -121.7442 85° East 209 241 14,500 976 Climbing Oakland Center
Fri 07:40:15 PM 37.7739 -121.6817 121° Southeast 209 241 15,400 829 Climbing Oakland Center
Fri 07:41:16 PM 37.7450 -121.6156 119° Southeast 212 244 16,200 878 Climbing Oakland Center
Fri 07:42:18 PM 37.7136 -121.5497 121° Southeast 219 252 17,200 829 Climbing Oakland Center
Fri 07:43:19 PM 37.6814 -121.4819 121° Southeast 221 254 17,900 780 Climbing Oakland Center
Fri 07:44:21 PM 37.6336 -121.4294 139° Southeast 226 260 18,800 732 Climbing Oakland Center
Fri 07:45:22 PM 37.5881 -121.3783 138° Southeast 224 258 19,400 683 Climbing Oakland Center
Fri 07:46:24 PM 37.5303 -121.3133 138° Southeast 231 266 20,200 683 Climbing Oakland Center
Fri 07:47:25 PM 37.4806 -121.2581 139° Southeast 237 273 20,800 634 Climbing Oakland Center
Fri 07:48:27 PM 37.4308 -121.2028 139° Southeast 238 274 21,500 634 Climbing Oakland Center
Fri 07:49:28 PM 37.3817 -121.1464 138° Southeast 236 272 22,100 590 Climbing Oakland Center
Fri 07:50:29 PM 37.3317 -121.0900 138° Southeast 240 276 22,700 439 Climbing Oakland Center
Fri 07:51:31 PM 37.2803 -121.0347 139° Southeast 243 280 23,000 146 Climbing Oakland Center
Fri 07:52:32 PM 37.2253 -120.9719 138° Southeast 265 305 23,000  Level Oakland Center
Fri 07:53:34 PM 37.1689 -120.9108 139° Southeast 269 310 23,000  Level Oakland Center
Fri 07:54:36 PM 37.1150 -120.8486 137° Southeast 265 305 23,000  Level Oakland Center
Fri 07:55:37 PM 37.0458 -120.7769 140° Southeast 271 312 23,000  Level Oakland Center
Fri 07:56:38 PM 36.9906 -120.7164 139° Southeast 266 306 23,000  Level Oakland Center
Fri 07:57:40 PM 36.9339 -120.6544 139° Southeast 274 315 23,000  Level Oakland Center
Fri 07:58:41 PM 36.8808 -120.5903 136° Southeast 285 328 23,000  Level Oakland Center
Fri 07:59:43 PM 36.8181 -120.5258 141° Southeast 270 311 23,000  Level Oakland Center
Fri 08:00:44 PM 36.7619 -120.4639 139° Southeast 271 312 23,000  Level Oakland Center
Fri 08:01:46 PM 36.7064 -120.4022 138° Southeast 268 308 23,000  Level Oakland Center
Fri 08:02:47 PM 36.6508 -120.3411 139° Southeast 271 312 23,000  Level Oakland Center
Fri 08:03:48 PM 36.5925 -120.2783 139° Southeast 274 315 23,000  Level Oakland Center
Fri 08:04:50 PM 36.5375 -120.2169 138° Southeast 269 310 23,000 -293 Level Oakland Center
Fri 08:05:51 PM 36.4792 -120.1542 139° Southeast 277 319 22,400 -780 Descending Oakland Center
Fri 08:06:53 PM 36.4153 -120.0839 138° Southeast 303 349 21,400 -1,043 Descending Oakland Center
Fri 08:08:55 PM 36.2717 -119.9314 139° Southeast 304 350 19,200 -1,109 Descending Oakland Center
Fri 08:09:57 PM 36.2086 -119.8625 139° Southeast 302 348 18,000 -1,024 Descending Oakland Center
Fri 08:10:58 PM 36.1453 -119.7958 140° Southeast 299 344 17,100 -927 Descending Oakland Center
Fri 08:12:00 PM 36.0839 -119.7303 139° Southeast 292 336 16,100 -1,024 Descending Oakland Center
Fri 08:13:01 PM 36.0239 -119.6664 139° Southeast 286 329 15,000 -1,317 Descending Oakland Center
Fri 08:14:03 PM 35.9642 -119.6061 141° Southeast 278 320 13,400 -1,415 Descending Oakland Center
Fri 08:15:04 PM 35.9031 -119.5422 140° Southeast 282 325 12,100 -1,328 Descending Oakland Center
Fri 08:16:05 PM 35.8439 -119.4786 139° Southeast 283 326 10,700 -1,366 Descending Oakland Center
Fri 08:17:07 PM 35.7878 -119.4119 136° Southeast 280 322 9,300 -1,317 Descending Oakland Center
Fri 08:18:08 PM 35.7383 -119.3419 131° Southeast 274 315 8,000 -1,415 Descending Oakland Center
Fri 08:19:10 PM 35.6806 -119.2586 130° Southeast 271 312 6,400 -1,415 Descending Oakland Center
Fri 08:20:11 PM 35.6428 -119.1836 122° Southeast 266 306 5,100 -732 Descending Oakland Center
Fri 08:21:13 PM 35.6047 -119.1136 124° Southeast 257 296 4,900 -143 Descending Oakland Center
Fri 08:21:35 PM 35.5875 -119.0894 131° Southeast 252 290 4,900  Level Los Angeles Center
Fri 08:22:37 PM 35.5428 -119.0303 133° Southeast 242 278 4,900  Level Los Angeles Center
Fri 08:23:39 PM 35.4983 -118.9742 134° Southeast 235 270 4,900 -339 Level Los Angeles Center
Fri 08:24:41 PM 35.4397 -118.9361 152° Southeast 227 261 4,200 -339 Descending Los Angeles Center
Fri 08:25:43 PM 35.3858 -118.9031 153° Southeast 220 253 4,200  Level Los Angeles Center
Fri 08:27:00 PM 35.4205 -119.0145 270° West  Level Estimated

Login

Don't have an account? Register now (free) for customized features, flight alerts, and more!